Time;durP1;ratioP1;P1;durP2;ratioP2;P2;SDS_P1;SDS_P2;PMS_P1;PMS_P2;Temp;Humidity;BMP_temperature;BMP_pressure;BME280_temperature;BME280_humidity;BME280_pressure;Samples;Min_cycle;Max_cycle;Signal;HPM_P1;HPM_P2
2022/07/22 00:00:01;;;;;;;411.95;368.58;;;;;;;26.32;52.82;99545.81;295868;33;1234;-74
2022/07/22 00:00:12;;;;;;;412.97;369.47;;;;;;;26.34;52.61;99543.81;293956;33;6111;-74
2022/07/22 00:00:22;;;;;;;408.85;365.17;;;;;;;26.36;52.80;99544.47;293187;33;6624;-74
2022/07/22 00:00:33;;;;;;;405.90;362.17;;;;;;;26.37;52.66;99548.84;291317;33;4616;-74
2022/07/22 00:00:44;;;;;;;404.10;360.40;;;;;;;26.39;52.90;99546.84;292705;33;1820;-74
2022/07/22 00:00:55;;;;;;;406.60;362.88;;;;;;;26.38;52.78;99539.78;292711;33;4170;-74
2022/07/22 00:01:05;;;;;;;407.20;363.53;;;;;;;26.39;52.88;99542.31;294263;33;5767;-74
2022/07/22 00:01:16;;;;;;;404.48;361.02;;;;;;;26.42;52.70;99549.19;296925;33;1132;-74
2022/07/22 00:01:26;;;;;;;408.57;364.97;;;;;;;26.44;52.80;99550.66;289887;33;7711;-74
2022/07/22 00:01:36;;;;;;;410.77;367.05;;;;;;;26.45;52.91;99546.13;283929;34;8438;-74
2022/07/22 00:01:47;;;;;;;418.03;373.87;;;;;;;26.47;52.71;99547.66;282097;34;2192;-74
2022/07/22 00:01:57;;;;;;;416.53;372.53;;;;;;;26.48;52.64;99548.50;285785;34;8349;-74
2022/07/22 00:02:08;;;;;;;410.65;366.88;;;;;;;26.49;52.79;99542.13;285599;34;7446;-74
2022/07/22 00:02:18;;;;;;;403.53;359.93;;;;;;;26.50;52.64;99550.00;284765;34;8072;-74
2022/07/22 00:02:29;;;;;;;399.88;356.35;;;;;;;26.51;52.50;99551.69;284547;34;871;-74
2022/07/22 00:02:39;;;;;;;405.33;361.63;;;;;;;26.47;52.56;99549.50;283356;34;9162;-74
2022/07/22 00:04:33;;;;;;;317.30;272.16;;;;;;;26.42;52.58;99538.44;2499051;27;20730;-74
2022/07/22 00:04:43;;;;;;;388.17;345.40;;;;;;;26.45;52.63;99551.50;354180;27;1559;-74
2022/07/22 00:04:53;;;;;;;390.70;347.73;;;;;;;26.44;52.49;99544.47;354335;27;1033;-74
2022/07/22 00:05:04;;;;;;;383.98;339.95;;;;;;;26.45;52.47;99546.13;351575;28;820;-74
2022/07/22 00:05:15;;;;;;;383.27;336.67;;;;;;;26.45;52.78;99548.81;348028;28;3786;-74
2022/07/22 00:05:25;;;;;;;386.27;343.73;;;;;;;26.45;52.77;99538.94;349241;28;4983;-74
2022/07/22 00:05:36;;;;;;;401.83;358.63;;;;;;;26.45;52.76;99546.13;350165;28;1208;-74
2022/07/22 00:05:46;;;;;;;399.23;356.13;;;;;;;26.46;52.59;99540.59;349704;28;2532;-74
2022/07/22 00:05:56;;;;;;;389.70;346.85;;;;;;;26.49;52.41;99536.75;348290;28;5390;-74
2022/07/22 00:06:07;;;;;;;384.23;341.77;;;;;;;26.50;52.39;99539.28;348714;28;1596;-74
2022/07/22 00:06:17;;;;;;;384.90;341.40;;;;;;;26.51;52.35;99548.16;351371;28;1368;-74
2022/07/22 00:06:28;;;;;;;385.27;341.95;;;;;;;26.51;52.43;99545.47;348019;28;1223;-74
2022/07/22 00:06:38;;;;;;;388.73;345.85;;;;;;;26.51;52.55;99543.63;347633;28;1117;-74
2022/07/22 00:06:49;;;;;;;394.53;351.73;;;;;;;26.51;52.83;99546.31;349439;28;1148;-74
2022/07/22 00:06:59;;;;;;;395.80;353.25;;;;;;;26.52;52.49;99544.47;347528;28;1686;-74
2022/07/22 00:07:10;;;;;;;389.13;346.57;;;;;;;26.52;52.58;99544.47;350009;28;909;-74
2022/07/22 00:07:20;;;;;;;387.42;344.88;;;;;;;26.54;52.69;99541.63;348571;28;1189;-74
2022/07/22 00:07:32;;;;;;;389.60;346.73;;;;;;;26.56;52.14;99542.31;347414;28;939;-74
2022/07/22 00:07:42;;;;;;;390.02;347.15;;;;;;;26.55;52.61;99538.78;347208;28;1391;-74
2022/07/22 00:07:53;;;;;;;388.30;345.53;;;;;;;26.57;52.71;99550.19;346848;28;1815;-74
2022/07/22 00:08:04;;;;;;;382.92;340.48;;;;;;;26.59;52.25;99552.72;347380;28;923;-74
2022/07/22 00:08:14;;;;;;;384.93;342.50;;;;;;;26.58;52.44;99546.50;348585;28;1219;-74
2022/07/22 00:08:24;;;;;;;383.75;340.30;;;;;;;26.59;52.33;99542.81;346187;28;1138;-74
2022/07/22 00:08:35;;;;;;;387.23;344.37;;;;;;;26.59;52.57;99540.13;345710;28;1778;-74
2022/07/22 00:08:45;;;;;;;386.40;343.65;;;;;;;26.61;52.61;99545.31;345645;28;1310;-74
2022/07/22 00:08:56;;;;;;;386.37;342.70;;;;;;;26.61;52.17;99548.84;344483;28;1374;-74
2022/07/22 00:09:06;;;;;;;389.38;346.35;;;;;;;26.62;52.61;99547.84;345896;28;1287;-74
2022/07/22 00:09:17;;;;;;;393.13;350.00;;;;;;;26.63;52.18;99546.00;341926;28;1007;-74
2022/07/22 00:09:27;;;;;;;390.65;347.83;;;;;;;26.64;52.34;99553.03;344661;28;949;-74
2022/07/22 00:09:37;;;;;;;389.63;346.80;;;;;;;26.66;52.16;99553.72;343883;28;1981;-74
2022/07/22 00:09:48;;;;;;;387.30;342.67;;;;;;;26.65;52.60;99549.34;343265;28;1220;-74
2022/07/22 00:09:58;;;;;;;393.38;349.90;;;;;;;26.65;52.42;99546.69;342168;28;886;-74
2022/07/22 00:10:10;;;;;;;390.13;346.93;;;;;;;26.65;52.21;99547.50;342433;28;1024;-74
2022/07/22 00:10:21;;;;;;;392.50;349.42;;;;;;;26.66;52.09;99554.56;342992;28;1487;-74
2022/07/22 00:10:31;;;;;;;390.60;347.88;;;;;;;26.66;52.18;99551.88;343146;28;1092;-74
2022/07/22 00:10:41;;;;;;;391.47;348.67;;;;;;;26.67;52.39;99545.50;344347;28;1213;-74
2022/07/22 00:10:52;;;;;;;385.30;342.80;;;;;;;26.68;52.29;99552.56;343068;28;1120;-74
2022/07/22 00:11:03;;;;;;;381.45;338.50;;;;;;;26.66;52.24;99554.56;339389;29;1541;-74
2022/07/22 00:11:13;;;;;;;385.85;343.30;;;;;;;26.68;52.55;99549.03;341961;28;2041;-74
2022/07/22 00:11:23;;;;;;;389.73;347.00;;;;;;;26.67;52.24;99550.88;341555;28;1301;-74
2022/07/22 00:11:34;;;;;;;394.20;351.35;;;;;;;26.67;52.22;99555.41;342090;28;1275;-74
2022/07/22 00:11:45;;;;;;;404.70;361.27;;;;;;;26.66;52.75;99549.19;339515;28;1687;-73
2022/07/22 00:11:55;;;;;;;409.67;366.05;;;;;;;26.67;52.49;99552.72;340507;28;1617;-73
2022/07/22 00:12:05;;;;;;;407.73;363.97;;;;;;;26.66;52.23;99549.19;340566;29;1991;-74
2022/07/22 00:12:16;;;;;;;393.15;349.42;;;;;;;26.66;52.48;99549.19;341722;28;1221;-74
2022/07/22 00:12:26;;;;;;;390.53;345.57;;;;;;;26.66;52.53;99551.88;342464;28;1262;-74
2022/07/22 00:12:37;;;;;;;390.48;347.48;;;;;;;26.67;52.34;99560.78;340106;28;1483;-74
2022/07/22 00:12:48;;;;;;;402.40;359.30;;;;;;;26.67;52.52;99561.63;336622;29;1334;-74
2022/07/22 00:12:58;;;;;;;403.20;360.13;;;;;;;26.65;52.25;99552.88;339447;29;1538;-74
2022/07/22 00:13:09;;;;;;;403.17;360.07;;;;;;;26.65;52.56;99558.25;338662;29;1323;-74
2022/07/22 00:13:19;;;;;;;400.20;357.00;;;;;;;26.65;52.31;99558.25;338026;29;1047;-74
2022/07/22 00:13:29;;;;;;;398.53;355.43;;;;;;;26.65;52.65;99560.94;336440;29;1980;-74
2022/07/22 00:13:40;;;;;;;397.15;354.15;;;;;;;26.64;52.41;99561.09;339414;29;1335;-74
2022/07/22 00:13:50;;;;;;;392.43;349.63;;;;;;;26.65;52.54;99555.56;339268;29;2609;-74
2022/07/22 00:14:01;;;;;;;392.23;349.38;;;;;;;26.66;52.65;99559.94;339256;29;858;-74
2022/07/22 00:14:12;;;;;;;393.97;350.77;;;;;;;26.67;52.54;99555.41;336228;29;1389;-74
2022/07/22 00:14:23;;;;;;;395.77;352.63;;;;;;;26.66;52.50;99559.94;332886;29;3496;-74
2022/07/22 00:14:33;;;;;;;395.00;351.83;;;;;;;26.66;52.45;99559.09;329741;29;4667;-74
2022/07/22 00:14:44;;;;;;;396.08;353.15;;;;;;;26.66;52.77;99559.94;333994;29;4964;-74
2022/07/22 00:14:54;;;;;;;396.23;353.07;;;;;;;26.64;52.52;99553.03;335866;28;1852;-74
2022/07/22 00:15:05;;;;;;;392.38;349.42;;;;;;;26.65;52.50;99558.25;333617;29;5293;-74
2022/07/22 00:15:15;;;;;;;392.75;349.63;;;;;;;26.62;52.64;99558.59;334514;29;1811;-74
2022/07/22 00:15:26;;;;;;;395.07;352.13;;;;;;;26.62;52.65;99558.59;334039;29;1839;-74
2022/07/22 00:15:36;;;;;;;399.70;356.60;;;;;;;26.62;52.61;99563.94;334784;29;2189;-74
2022/07/22 00:15:47;;;;;;;394.05;351.15;;;;;;;26.63;52.82;99559.44;326491;30;1442;-74
2022/07/22 00:15:58;;;;;;;395.07;352.10;;;;;;;26.62;52.70;99561.28;327190;30;1190;-74
2022/07/22 00:16:08;;;;;;;394.63;351.73;;;;;;;26.62;52.69;99552.38;326398;30;1574;-74
2022/07/22 00:16:18;;;;;;;400.27;357.27;;;;;;;26.63;52.46;99557.59;322853;30;1459;-74
2022/07/22 00:16:29;;;;;;;404.53;361.27;;;;;;;26.66;52.74;99564.47;318450;30;2018;-74
2022/07/22 00:16:39;;;;;;;409.97;366.40;;;;;;;26.65;52.45;99560.94;315597;30;1952;-74
2022/07/22 00:16:50;;;;;;;403.48;359.92;;;;;;;26.66;52.51;99559.94;317612;31;1217;-74
2022/07/22 00:17:00;;;;;;;402.90;359.47;;;;;;;26.66;52.28;99559.94;313524;31;2475;-74
2022/07/22 00:17:10;;;;;;;395.30;351.90;;;;;;;26.67;52.27;99556.25;313623;31;2501;-74
2022/07/22 00:17:21;;;;;;;404.00;360.53;;;;;;;26.68;52.29;99557.91;315020;31;857;-74
2022/07/22 00:17:31;;;;;;;402.83;359.35;;;;;;;26.68;52.62;99557.91;321136;30;2268;-74
2022/07/22 00:17:42;;;;;;;401.40;358.13;;;;;;;26.68;52.57;99560.59;323151;30;2023;-74
2022/07/22 00:17:52;;;;;;;395.97;353.00;;;;;;;26.68;52.26;99557.09;323465;30;1719;-74
2022/07/22 00:18:02;;;;;;;391.13;348.47;;;;;;;26.67;52.22;99561.63;321874;30;1201;-74
2022/07/22 00:18:13;;;;;;;395.27;352.47;;;;;;;26.65;52.29;99566.31;323160;30;1425;-74
2022/07/22 00:18:23;;;;;;;396.02;353.05;;;;;;;26.65;52.50;99563.63;323132;30;2049;-74
2022/07/22 00:18:34;;;;;;;397.90;354.87;;;;;;;26.67;52.64;99566.16;317080;31;1251;-74
2022/07/22 00:18:44;;;;;;;398.63;355.58;;;;;;;26.65;52.69;99558.25;319199;30;2518;-74
2022/07/22 00:18:54;;;;;;;402.87;359.50;;;;;;;26.64;52.60;99561.94;320268;30;2777;-74
2022/07/22 00:19:05;;;;;;;407.77;364.17;;;;;;;26.66;52.65;99564.47;319535;30;939;-74
2022/07/22 00:19:15;;;;;;;405.73;362.13;;;;;;;26.66;52.52;99565.31;316717;30;3468;-74
2022/07/22 00:19:26;;;;;;;397.40;354.23;;;;;;;26.67;52.55;99561.63;313117;31;3360;-74
2022/07/22 00:19:37;;;;;;;397.02;353.48;;;;;;;26.67;52.58;99560.78;310565;31;999;-74
2022/07/22 00:19:47;;;;;;;400.70;356.85;;;;;;;26.67;53.05;99556.25;310157;31;1471;-74
2022/07/22 00:19:57;;;;;;;402.97;359.00;;;;;;;26.67;52.94;99556.25;310060;31;3013;-74
2022/07/22 00:20:08;;;;;;;398.58;355.08;;;;;;;26.65;52.48;99558.25;308371;31;1794;-74
2022/07/22 00:20:19;;;;;;;396.80;353.73;;;;;;;26.66;52.66;99564.47;309659;31;1575;-74
2022/07/22 00:20:30;;;;;;;398.87;355.77;;;;;;;26.66;52.32;99559.94;310015;31;2170;-74
2022/07/22 00:20:40;;;;;;;396.20;353.23;;;;;;;26.65;52.52;99560.94;310577;31;3030;-74
2022/07/22 00:20:51;;;;;;;389.73;347.07;;;;;;;26.64;52.50;99559.25;310514;31;847;-74
2022/07/22 00:21:01;;;;;;;396.23;353.27;;;;;;;26.64;52.43;99558.41;304495;32;3514;-74
2022/07/22 00:21:11;;;;;;;396.63;353.73;;;;;;;26.61;52.66;99556.91;306101;31;3962;-74
2022/07/22 00:21:22;;;;;;;403.08;359.92;;;;;;;26.61;52.41;99562.28;307149;31;4795;-74
2022/07/22 00:21:32;;;;;;;399.20;356.27;;;;;;;26.62;52.58;99557.75;305554;31;2277;-74
2022/07/22 00:21:43;;;;;;;400.70;357.53;;;;;;;26.63;52.37;99560.25;298719;32;4844;-74
2022/07/22 00:21:53;;;;;;;395.25;352.30;;;;;;;26.62;52.65;99558.59;297238;32;4815;-74
2022/07/22 00:22:04;;;;;;;393.93;351.17;;;;;;;26.63;52.36;99559.44;298896;33;927;-74
2022/07/22 00:22:14;;;;;;;397.17;354.47;;;;;;;26.62;52.36;99558.59;300574;32;3649;-74
2022/07/22 00:22:24;;;;;;;399.90;357.27;;;;;;;26.61;52.31;99551.53;302965;32;2586;-74
2022/07/22 00:22:35;;;;;;;396.45;353.67;;;;;;;26.61;52.44;99556.91;304962;32;1320;-74
2022/07/22 00:22:45;;;;;;;396.23;353.50;;;;;;;26.56;52.53;99559.25;300628;32;3588;-74
2022/07/22 00:22:56;;;;;;;405.90;362.75;;;;;;;26.51;52.50;99559.75;296755;32;4765;-74
2022/07/22 00:23:06;;;;;;;407.70;364.63;;;;;;;26.47;52.67;99554.88;299078;33;1248;-74
2022/07/22 00:23:17;;;;;;;401.88;359.02;;;;;;;26.44;52.54;99555.19;297782;33;2189;-74
2022/07/22 00:23:27;;;;;;;395.80;353.20;;;;;;;26.40;52.90;99560.09;294102;33;6015;-74
2022/07/22 00:23:37;;;;;;;397.37;354.73;;;;;;;26.38;52.93;99553.22;288513;33;6936;-74
2022/07/22 00:23:48;;;;;;;407.02;363.77;;;;;;;26.38;53.02;99551.34;288644;34;5143;-74
2022/07/22 00:23:58;;;;;;;407.17;363.77;;;;;;;26.40;52.77;99553.88;285376;34;7033;-74
2022/07/22 00:24:09;;;;;;;412.83;368.85;;;;;;;26.42;52.77;99551.88;283764;34;6808;-74
2022/07/22 00:24:20;;;;;;;409.90;366.00;;;;;;;26.42;52.91;99560.75;286288;34;5276;-74
2022/07/22 00:24:30;;;;;;;407.02;363.30;;;;;;;26.43;52.95;99556.22;285303;34;5399;-74
2022/07/22 00:24:40;;;;;;;401.25;358.02;;;;;;;26.42;52.62;99554.56;286251;34;3987;-74
2022/07/22 00:24:51;;;;;;;399.57;356.47;;;;;;;26.42;52.67;99559.94;287083;34;888;-74
2022/07/22 00:25:01;;;;;;;401.90;358.73;;;;;;;26.43;52.62;99561.56;287843;34;6134;-74
2022/07/22 00:25:12;;;;;;;396.25;353.33;;;;;;;26.41;52.64;99555.56;286138;34;7464;-74
2022/07/22 00:25:22;;;;;;;397.93;354.93;;;;;;;26.42;52.83;99551.88;282886;34;8146;-74
2022/07/22 00:25:33;;;;;;;398.35;355.10;;;;;;;26.42;52.47;99557.25;281665;35;855;-74
2022/07/22 00:25:43;;;;;;;398.23;355.03;;;;;;;26.43;52.98;99559.72;281843;34;8417;-74
2022/07/22 00:25:53;;;;;;;388.70;345.98;;;;;;;26.43;52.86;99561.56;279628;35;10409;-74
2022/07/22 00:26:04;;;;;;;385.27;342.90;;;;;;;26.43;52.58;99553.53;279818;35;837;-74
2022/07/22 00:26:14;;;;;;;385.85;343.42;;;;;;;26.45;52.80;99556.88;274367;35;9424;-74
2022/07/22 00:27:58;;;;;;;377.00;320.61;;;;;;;26.35;52.69;99558.91;2497587;27;20269;-73
2022/07/22 00:28:08;;;;;;;413.40;369.97;;;;;;;26.32;53.06;99556.53;352778;28;880;-73
2022/07/22 00:28:19;;;;;;;415.33;372.00;;;;;;;26.29;52.83;99554.16;350212;28;874;-73
2022/07/22 00:28:30;;;;;;;409.70;366.60;;;;;;;26.28;53.45;99560.53;348862;28;1223;-73
2022/07/22 00:28:40;;;;;;;404.42;361.27;;;;;;;26.30;53.12;99563.88;347111;28;1300;-74
2022/07/22 00:28:50;;;;;;;407.23;363.90;;;;;;;26.32;53.24;99556.53;347225;28;991;-74
2022/07/22 00:29:01;;;;;;;412.77;368.87;;;;;;;26.33;52.90;99558.22;347113;28;1686;-74
2022/07/22 00:29:11;;;;;;;418.00;374.15;;;;;;;26.34;52.84;99559.91;345878;28;892;-74
2022/07/22 00:29:21;;;;;;;408.80;365.03;;;;;;;26.34;52.93;99555.38;345996;28;881;-74
2022/07/22 00:29:32;;;;;;;399.67;356.55;;;;;;;26.35;52.85;99556.22;347435;28;1321;-74
2022/07/22 00:29:42;;;;;;;397.67;354.73;;;;;;;26.35;53.10;99558.91;349661;28;1191;-74
2022/07/22 00:29:53;;;;;;;400.92;357.65;;;;;;;26.36;52.66;99552.53;348528;28;955;-74
2022/07/22 00:30:04;;;;;;;404.63;361.03;;;;;;;26.38;53.15;99551.34;348564;28;1024;-74
2022/07/22 00:30:14;;;;;;;400.23;356.70;;;;;;;26.38;53.04;99556.72;348199;28;1763;-74
2022/07/22 00:30:24;;;;;;;394.20;351.20;;;;;;;26.39;52.74;99562.94;347192;28;1295;-74
2022/07/22 00:30:35;;;;;;;385.50;342.65;;;;;;;26.36;52.86;99557.91;347533;28;953;-74
2022/07/22 00:30:45;;;;;;;393.20;350.40;;;;;;;26.31;53.33;99555.72;348402;28;1913;-74
2022/07/22 00:30:56;;;;;;;396.95;353.98;;;;;;;26.28;53.40;99556.00;348517;28;1209;-74
2022/07/22 00:31:07;;;;;;;396.98;354.25;;;;;;;26.26;53.37;99558.00;348567;28;934;-74
2022/07/22 00:31:17;;;;;;;389.07;346.57;;;;;;;26.23;53.44;99557.50;345646;28;1229;-74
2022/07/22 00:31:27;;;;;;;393.53;350.67;;;;;;;26.22;53.25;99558.50;345723;28;2119;-74
2022/07/22 00:31:38;;;;;;;398.83;355.65;;;;;;;26.23;53.28;99558.34;343061;28;1407;-74
2022/07/22 00:31:48;;;;;;;405.20;361.93;;;;;;;26.23;53.42;99552.97;344335;28;1297;-74
2022/07/22 00:31:59;;;;;;;406.83;363.48;;;;;;;26.24;53.36;99553.81;345753;28;1634;-74
2022/07/22 00:32:09;;;;;;;405.00;361.73;;;;;;;26.25;53.41;99556.31;344351;28;1283;-74
2022/07/22 00:32:19;;;;;;;408.02;364.63;;;;;;;26.28;53.24;99552.47;344688;28;1245;-74
2022/07/22 00:32:30;;;;;;;405.37;362.17;;;;;;;26.29;53.26;99557.69;346307;28;1833;-74
2022/07/22 00:32:40;;;;;;;406.23;363.07;;;;;;;26.29;53.34;99546.09;345968;28;833;-74
2022/07/22 00:32:51;;;;;;;402.85;359.83;;;;;;;26.30;53.04;99558.53;340657;28;4891;-74
2022/07/22 00:33:01;;;;;;;399.20;356.37;;;;;;;26.33;53.13;99558.22;341980;28;3197;-74
2022/07/22 00:33:11;;;;;;;395.77;352.73;;;;;;;26.32;53.17;99557.38;343087;28;1620;-74
2022/07/22 00:33:22;;;;;;;398.80;355.60;;;;;;;26.32;52.98;99556.53;340765;28;1789;-74
2022/07/22 00:33:32;;;;;;;400.63;357.42;;;;;;;26.31;53.30;99554.88;343153;28;5192;-74
2022/07/22 00:33:43;;;;;;;403.93;360.73;;;;;;;26.29;53.33;99559.53;346022;28;888;-74
2022/07/22 00:33:53;;;;;;;399.43;356.43;;;;;;;26.29;53.17;99559.53;345144;28;1241;-74
2022/07/22 00:34:04;;;;;;;400.80;357.73;;;;;;;26.30;52.93;99562.03;344274;28;1200;-74
2022/07/22 00:34:14;;;;;;;402.13;359.10;;;;;;;26.30;53.16;99554.00;343089;28;1528;-74
2022/07/22 00:34:24;;;;;;;402.92;359.67;;;;;;;26.30;53.46;99553.16;343571;28;1301;-74
2022/07/22 00:34:35;;;;;;;405.97;362.67;;;;;;;26.32;52.86;99556.53;341082;28;1603;-74
2022/07/22 00:34:45;;;;;;;403.40;360.17;;;;;;;26.31;53.03;99555.72;341891;28;1056;-74
2022/07/22 00:34:55;;;;;;;401.33;358.33;;;;;;;26.30;53.32;99554.00;341832;28;907;-74
2022/07/22 00:35:06;;;;;;;399.33;356.40;;;;;;;26.30;53.00;99559.38;340395;29;1463;-74
2022/07/22 00:35:17;;;;;;;398.58;355.77;;;;;;;26.32;53.25;99556.53;341711;28;1222;-74
2022/07/22 00:35:27;;;;;;;402.57;359.53;;;;;;;26.33;52.98;99558.22;340346;29;1190;-74
2022/07/22 00:35:37;;;;;;;404.55;361.45;;;;;;;26.33;53.10;99558.22;341651;28;940;-74
2022/07/22 00:35:48;;;;;;;403.53;360.47;;;;;;;26.35;53.18;99561.59;340521;28;1599;-74
2022/07/22 00:35:58;;;;;;;399.90;356.95;;;;;;;26.35;53.10;99556.22;341932;28;817;-74
2022/07/22 00:36:09;;;;;;;398.23;355.17;;;;;;;26.38;53.15;99555.88;341000;28;1574;-74
2022/07/22 00:36:19;;;;;;;397.25;354.15;;;;;;;26.38;53.39;99561.25;335378;29;1382;-74
2022/07/22 00:36:30;;;;;;;402.23;359.03;;;;;;;26.40;53.35;99559.25;329420;29;827;-74
2022/07/22 00:36:40;;;;;;;402.95;359.65;;;;;;;26.42;53.38;99559.94;326117;29;1516;-74
2022/07/22 00:36:50;;;;;;;404.47;361.10;;;;;;;26.43;53.19;99558.88;332650;29;2008;-74
2022/07/22 00:37:01;;;;;;;399.42;356.10;;;;;;;26.43;53.63;99559.72;337964;29;1448;-74
2022/07/22 00:37:11;;;;;;;397.37;354.27;;;;;;;26.45;53.71;99554.19;335349;29;1765;-74
2022/07/22 00:37:22;;;;;;;399.17;356.10;;;;;;;26.45;53.36;99557.72;333828;29;1107;-74
2022/07/22 00:37:32;;;;;;;393.98;351.10;;;;;;;26.45;53.33;99559.56;332506;29;1463;-74
2022/07/22 00:37:43;;;;;;;388.93;346.43;;;;;;;26.45;53.54;99562.25;336490;29;839;-74
2022/07/22 00:37:54;;;;;;;384.95;342.58;;;;;;;26.44;53.36;99565.94;336181;29;1550;-74
2022/07/22 00:38:04;;;;;;;383.73;341.67;;;;;;;26.43;53.56;99559.72;332658;29;1968;-74
2022/07/22 00:38:14;;;;;;;379.90;337.20;;;;;;;26.44;53.61;99558.72;331481;29;1493;-74
2022/07/22 00:38:25;;;;;;;386.70;344.10;;;;;;;26.45;53.70;99564.94;332217;29;1837;-74
2022/07/22 00:38:35;;;;;;;385.13;341.75;;;;;;;26.45;53.89;99562.25;331849;29;2210;-74
2022/07/22 00:38:45;;;;;;;387.67;344.43;;;;;;;26.45;53.75;99562.25;331545;29;871;-74
2022/07/22 00:38:56;;;;;;;391.55;348.38;;;;;;;26.42;53.94;99559.94;333379;29;2078;-74
2022/07/22 00:39:06;;;;;;;398.33;354.83;;;;;;;26.43;53.65;99561.56;329454;29;1865;-75
2022/07/22 00:39:17;;;;;;;399.02;355.80;;;;;;;26.43;54.06;99564.25;328155;30;1361;-74
2022/07/22 00:39:27;;;;;;;392.50;349.67;;;;;;;26.41;53.61;99561.78;327706;30;1303;-74
2022/07/22 00:39:38;;;;;;;392.45;349.80;;;;;;;26.41;53.64;99555.56;328290;29;1325;-74
2022/07/22 00:39:48;;;;;;;396.37;353.60;;;;;;;26.43;53.65;99556.22;328630;30;1739;-74
2022/07/22 00:39:58;;;;;;;395.77;352.97;;;;;;;26.44;53.59;99566.78;327741;30;1221;-74
2022/07/22 00:40:09;;;;;;;388.02;345.42;;;;;;;26.44;54.03;99557.88;325369;30;2024;-74
2022/07/22 00:40:20;;;;;;;389.27;346.48;;;;;;;26.44;53.62;99560.56;325937;30;2473;-74
2022/07/22 00:40:30;;;;;;;397.97;354.87;;;;;;;26.45;53.85;99564.94;327930;30;776;-74
2022/07/22 00:40:41;;;;;;;402.77;359.55;;;;;;;26.43;53.73;99559.72;324727;30;2415;-74
2022/07/22 00:40:51;;;;;;;396.43;353.67;;;;;;;26.42;53.57;99563.44;322341;30;2913;-74
2022/07/22 00:41:02;;;;;;;392.02;349.33;;;;;;;26.42;53.87;99567.97;321698;30;1547;-74
2022/07/22 00:41:12;;;;;;;390.80;348.13;;;;;;;26.41;53.36;99560.94;320651;30;798;-74
2022/07/22 00:41:22;;;;;;;394.13;351.33;;;;;;;26.42;53.81;99565.28;320069;30;1765;-74
2022/07/22 00:41:33;;;;;;;392.87;349.97;;;;;;;26.41;53.56;99563.63;315986;30;1483;-74
2022/07/22 00:41:43;;;;;;;396.30;353.27;;;;;;;26.40;52.95;99565.47;313668;31;759;-74
2022/07/22 00:41:54;;;;;;;396.30;353.35;;;;;;;26.40;53.73;99564.63;317549;30;2004;-74
2022/07/22 00:42:04;;;;;;;400.40;357.43;;;;;;;26.40;53.60;99559.25;312751;31;4468;-74
2022/07/22 00:42:15;;;;;;;395.40;352.55;;;;;;;26.40;53.34;99567.31;311886;31;2650;-74
2022/07/22 00:42:25;;;;;;;396.60;353.50;;;;;;;26.38;53.64;99562.09;320639;30;2985;-74
2022/07/22 00:42:35;;;;;;;393.27;350.27;;;;;;;26.38;53.65;99555.88;321274;30;3332;-74
2022/07/22 00:42:47;;;;;;;397.13;354.00;;;;;;;26.37;53.71;99559.56;319912;30;1544;-74
2022/07/22 00:42:57;;;;;;;394.13;351.35;;;;;;;26.35;53.63;99562.44;317133;31;862;-74
2022/07/22 00:43:07;;;;;;;392.70;350.15;;;;;;;26.37;53.76;99562.25;317450;30;3606;-74
2022/07/22 00:43:18;;;;;;;391.70;349.17;;;;;;;26.34;53.29;99565.28;317926;31;3495;-74
2022/07/22 00:43:31;;;;;;;389.70;347.20;;;;;;;26.36;53.42;99569.47;313621;31;1401;-74
2022/07/22 00:43:57;;;;;;;391.40;348.63;;;;;;;26.35;53.40;99564.28;313470;31;2569;-74
2022/07/22 00:44:08;;;;;;;393.00;350.25;;;;;;;26.37;53.55;99564.94;309638;31;2803;-74
2022/07/22 00:44:18;;;;;;;392.47;349.67;;;;;;;26.36;53.46;99563.25;307957;31;3749;-74
2022/07/22 00:44:28;;;;;;;386.70;343.92;;;;;;;26.36;53.45;99569.47;312668;31;757;-74
2022/07/22 00:44:39;;;;;;;395.13;352.00;;;;;;;26.37;53.41;99564.94;309091;31;3953;-74
2022/07/22 00:44:49;;;;;;;399.42;356.15;;;;;;;26.38;53.62;99561.25;307459;31;4422;-75
2022/07/22 00:45:00;;;;;;;409.43;365.87;;;;;;;26.37;53.59;99565.78;309513;31;816;-75
2022/07/22 00:45:11;;;;;;;403.08;359.52;;;;;;;26.37;53.44;99564.94;304283;32;4387;-75
2022/07/22 00:45:21;;;;;;;394.55;351.10;;;;;;;26.35;53.34;99562.44;300793;32;4612;-75
2022/07/22 00:45:31;;;;;;;389.47;344.27;;;;;;;26.37;53.65;99564.94;300764;32;1739;-75
2022/07/22 00:45:42;;;;;;;389.23;345.60;;;;;;;26.37;53.77;99564.94;301144;32;5264;-74
2022/07/22 00:45:52;;;;;;;386.88;343.75;;;;;;;26.35;53.64;99562.44;298933;32;3267;-74
2022/07/22 00:46:03;;;;;;;389.80;346.90;;;;;;;26.35;53.82;99561.59;297023;32;3077;-74
2022/07/22 00:46:13;;;;;;;388.10;345.47;;;;;;;26.33;53.91;99568.97;296415;33;1787;-74
2022/07/22 00:46:24;;;;;;;395.35;352.40;;;;;;;26.29;54.01;99562.22;295656;32;4359;-74
2022/07/22 00:46:35;;;;;;;394.10;351.13;;;;;;;26.28;53.92;99560.53;294382;32;5083;-74
2022/07/22 00:46:46;;;;;;;397.55;354.27;;;;;;;26.30;53.81;99561.19;297115;32;1074;-74
2022/07/22 00:46:56;;;;;;;392.20;349.17;;;;;;;26.29;54.29;99557.69;295784;32;5592;-74
2022/07/22 00:47:07;;;;;;;390.17;347.20;;;;;;;26.29;54.25;99562.22;295999;32;5977;-74
2022/07/22 00:47:17;;;;;;;383.83;340.95;;;;;;;26.28;54.30;99561.38;295387;33;5958;-74
2022/07/22 00:47:27;;;;;;;384.97;342.23;;;;;;;26.29;54.52;99567.56;290018;34;1133;-74
2022/07/22 00:47:38;;;;;;;389.98;347.33;;;;;;;26.30;54.36;99569.25;291950;33;6323;-74
2022/07/22 00:47:48;;;;;;;391.97;349.17;;;;;;;26.27;54.63;99564.22;291564;33;6604;-74
2022/07/22 00:47:59;;;;;;;388.70;345.67;;;;;;;26.26;54.58;99562.53;288849;34;975;-74
2022/07/22 00:48:09;;;;;;;388.73;345.80;;;;;;;26.28;54.86;99563.22;286688;34;4859;-74
2022/07/22 00:48:19;;;;;;;391.67;348.57;;;;;;;26.26;54.46;99557.16;284855;34;4699;-74
2022/07/22 00:48:30;;;;;;;396.65;353.75;;;;;;;26.26;54.86;99566.06;288278;34;966;-74
2022/07/22 00:48:40;;;;;;;395.60;352.50;;;;;;;26.26;54.79;99562.53;286401;34;6716;-74
2022/07/22 00:48:51;;;;;;;397.60;354.75;;;;;;;26.23;54.64;99557.50;283953;34;7182;-74
2022/07/22 00:49:02;;;;;;;395.30;352.43;;;;;;;26.22;54.92;99561.19;283341;34;791;-74
2022/07/22 00:49:12;;;;;;;397.20;354.40;;;;;;;26.21;54.84;99562.19;285689;34;1146;-74
2022/07/22 00:49:23;;;;;;;392.52;349.67;;;;;;;26.22;54.93;99567.38;281774;34;7863;-74
2022/07/22 00:49:33;;;;;;;395.67;352.57;;;;;;;26.23;54.93;99562.88;278718;34;8146;-74
2022/07/22 00:49:43;;;;;;;401.23;358.07;;;;;;;26.24;54.96;99564.53;282322;35;1108;-74
2022/07/22 00:49:54;;;;;;;409.15;365.67;;;;;;;26.25;54.74;99560.84;282036;34;9023;-74
2022/07/22 00:50:05;;;;;;;399.93;356.83;;;;;;;26.25;54.84;99555.50;282324;34;9457;-74
2022/07/22 00:50:16;;;;;;;392.02;349.08;;;;;;;26.25;55.29;99561.69;281895;35;1253;-74
2022/07/22 00:50:27;;;;;;;393.15;350.30;;;;;;;26.26;55.15;99557.16;278829;35;6776;-74
2022/07/22 00:52:28;;;;;;;376.87;322.48;;;;;;;26.28;54.37;99560.53;2480641;27;20499;-73
2022/07/22 00:52:38;;;;;;;403.43;360.13;;;;;;;26.28;54.27;99557.84;353992;27;830;-73
2022/07/22 00:52:48;;;;;;;400.77;357.58;;;;;;;26.26;54.27;99558.00;351329;28;808;-73
2022/07/22 00:52:59;;;;;;;401.93;358.70;;;;;;;26.28;53.77;99566.72;349668;28;1201;-74
2022/07/22 00:53:09;;;;;;;400.35;357.17;;;;;;;26.27;53.79;99564.22;347109;28;888;-74
2022/07/22 00:53:20;;;;;;;401.77;358.60;;;;;;;26.27;53.60;99561.53;347110;28;1399;-74
2022/07/22 00:53:30;;;;;;;400.70;357.63;;;;;;;26.22;53.45;99562.03;347333;28;976;-74
2022/07/22 00:53:40;;;;;;;402.85;359.73;;;;;;;26.21;53.63;99565.72;348175;28;1427;-74